createdAt,value
2023-01-20T00:00:27.263Z,0.00
2023-01-20T00:01:27.221Z,0.00
2023-01-20T00:02:27.160Z,0.00
2023-01-20T00:03:27.152Z,0.00
2023-01-20T00:04:27.088Z,0.00
2023-01-20T00:05:27.020Z,0.00
2023-01-20T00:06:26.985Z,0.00
2023-01-20T00:07:27.007Z,0.00
2023-01-20T00:08:26.915Z,0.00
2023-01-20T00:09:26.877Z,0.00
2023-01-20T00:10:26.833Z,0.00
2023-01-20T00:11:26.801Z,0.00
2023-01-20T00:12:26.758Z,0.00
2023-01-20T00:13:26.795Z,0.00
2023-01-20T00:14:26.692Z,0.00
2023-01-20T00:15:26.658Z,0.00
2023-01-20T00:16:26.615Z,0.00
2023-01-20T00:17:26.583Z,0.00
2023-01-20T00:18:26.544Z,0.00
2023-01-20T00:19:26.571Z,0.00
2023-01-20T00:20:26.464Z,0.00
2023-01-20T00:21:26.433Z,0.00
2023-01-20T00:22:26.394Z,0.00
2023-01-20T00:23:26.374Z,0.00
2023-01-20T00:24:26.320Z,0.00
2023-01-20T00:25:26.345Z,0.00
2023-01-20T00:26:26.251Z,0.00
2023-01-20T00:27:26.212Z,0.00
2023-01-20T00:28:26.172Z,0.00
2023-01-20T00:29:26.138Z,0.00
2023-01-20T00:30:26.125Z,0.00
2023-01-20T00:31:26.188Z,0.00
2023-01-20T00:32:26.035Z,0.00
2023-01-20T00:33:26.036Z,0.00
2023-01-20T00:34:25.943Z,0.00
2023-01-20T00:35:25.905Z,0.00
2023-01-20T00:36:25.877Z,0.00
2023-01-20T00:37:25.898Z,0.00
2023-01-20T00:38:25.799Z,0.00
2023-01-20T00:39:25.761Z,0.00
2023-01-20T00:40:25.733Z,0.00
2023-01-20T00:41:25.680Z,0.00
2023-01-20T00:42:25.658Z,0.00
2023-01-20T00:43:25.692Z,0.00
2023-01-20T00:44:25.578Z,0.00
2023-01-20T00:45:25.543Z,0.00
2023-01-20T00:46:25.604Z,0.00
2023-01-20T00:47:25.467Z,0.00
2023-01-20T00:48:25.427Z,0.00
2023-01-20T00:49:25.452Z,0.00
2023-01-20T00:50:25.357Z,0.00
2023-01-20T00:51:25.311Z,0.00
2023-01-20T00:52:25.272Z,0.00
2023-01-20T00:53:25.239Z,0.00
2023-01-20T00:54:25.209Z,0.00
2023-01-20T00:55:25.234Z,0.00
2023-01-20T00:56:25.139Z,0.00
2023-01-20T00:57:25.097Z,0.00
2023-01-20T00:58:25.059Z,0.00
2023-01-20T00:59:25.008Z,0.00
2023-01-20T01:00:25.040Z,0.00
2023-01-20T01:01:25.063Z,0.00
2023-01-20T01:02:24.993Z,0.00
2023-01-20T01:03:24.867Z,0.00
2023-01-20T01:04:24.837Z,0.00
2023-01-20T01:05:24.790Z,0.00
2023-01-20T01:06:24.754Z,0.00
2023-01-20T01:07:24.773Z,0.00
2023-01-20T01:08:24.689Z,0.00
2023-01-20T01:09:24.635Z,0.00
2023-01-20T01:10:24.605Z,0.00
2023-01-20T01:11:24.574Z,0.00
2023-01-20T01:12:24.527Z,0.00
2023-01-20T01:13:24.554Z,0.00
2023-01-20T01:14:24.446Z,0.00
2023-01-20T01:15:24.416Z,0.00
2023-01-20T01:16:24.490Z,0.00
2023-01-20T01:17:24.337Z,0.00
2023-01-20T01:18:24.374Z,0.00
2023-01-20T01:19:24.270Z,0.00
2023-01-20T01:20:24.223Z,0.00
2023-01-20T01:21:24.195Z,0.00
2023-01-20T01:22:24.144Z,0.00
2023-01-20T01:23:24.111Z,0.00
2023-01-20T01:24:24.142Z,0.00
2023-01-20T01:25:24.044Z,0.00
2023-01-20T01:26:24.004Z,0.00
2023-01-20T01:27:23.965Z,0.00
2023-01-20T01:28:23.937Z,0.00
2023-01-20T01:29:23.955Z,0.00
2023-01-20T01:30:23.902Z,0.00
2023-01-20T01:31:23.859Z,0.00
2023-01-20T01:32:23.783Z,0.00
2023-01-20T01:33:23.746Z,0.00
2023-01-20T01:34:23.707Z,0.00
2023-01-20T01:35:23.719Z,0.00
2023-01-20T01:36:23.625Z,0.00
2023-01-20T01:37:23.585Z,0.00
2023-01-20T01:38:23.556Z,0.00
2023-01-20T01:39:23.508Z,0.00
2023-01-20T01:40:23.480Z,0.00
2023-01-20T01:41:23.504Z,0.00
2023-01-20T01:42:23.402Z,0.00
2023-01-20T01:43:23.376Z,0.00
2023-01-20T01:44:23.323Z,0.00
2023-01-20T01:45:23.324Z,0.00
2023-01-20T01:46:23.261Z,0.00
2023-01-20T01:47:23.288Z,0.00
2023-01-20T01:48:23.179Z,0.00
2023-01-20T01:49:23.152Z,0.00
2023-01-20T01:50:23.103Z,0.00
2023-01-20T01:51:23.070Z,0.00
2023-01-20T01:52:23.025Z,0.00
2023-01-20T01:53:23.052Z,0.00
2023-01-20T01:54:22.955Z,0.00
2023-01-20T01:55:22.917Z,0.00
2023-01-20T01:56:22.870Z,0.00
2023-01-20T01:57:22.848Z,0.00
2023-01-20T01:58:22.813Z,0.00
2023-01-20T01:59:22.815Z,0.00
2023-01-20T02:00:22.724Z,0.00
2023-01-20T02:01:22.788Z,0.00
2023-01-20T02:02:24.172Z,0.00
2023-01-20T02:03:22.611Z,0.00
2023-01-20T02:04:22.574Z,0.00
2023-01-20T02:05:22.611Z,0.00
2023-01-20T02:06:22.510Z,0.00
2023-01-20T02:07:22.468Z,0.00
2023-01-20T02:08:22.430Z,0.00
2023-01-20T02:09:22.392Z,0.00
2023-01-20T02:10:22.346Z,0.00
2023-01-20T02:11:22.371Z,0.00
2023-01-20T02:12:22.269Z,0.00
2023-01-20T02:13:22.245Z,0.00
2023-01-20T02:14:22.204Z,0.00
2023-01-20T02:15:22.169Z,0.00
2023-01-20T02:16:22.174Z,0.00
2023-01-20T02:17:22.149Z,0.00
2023-01-20T02:18:22.064Z,0.00
2023-01-20T02:19:22.008Z,0.00
2023-01-20T02:20:21.971Z,0.00
2023-01-20T02:21:21.948Z,0.00
2023-01-20T02:22:21.903Z,0.00
2023-01-20T02:23:21.937Z,0.00
2023-01-20T02:24:21.828Z,0.00
2023-01-20T02:25:21.790Z,0.00
2023-01-20T02:26:21.752Z,0.00
2023-01-20T02:27:21.719Z,0.00
2023-01-20T02:28:21.679Z,0.00
2023-01-20T02:29:21.707Z,0.00
2023-01-20T02:30:21.636Z,0.00
2023-01-20T02:31:21.588Z,0.00
2023-01-20T02:32:21.527Z,0.00
2023-01-20T02:33:21.492Z,0.00
2023-01-20T02:34:21.461Z,0.00
2023-01-20T02:35:21.467Z,0.00
2023-01-20T02:36:21.375Z,0.00
2023-01-20T02:37:21.340Z,0.00
2023-01-20T02:38:21.319Z,0.00
2023-01-20T02:39:27.457Z,0.00
2023-01-20T02:40:21.291Z,0.00
2023-01-20T02:41:21.185Z,0.00
2023-01-20T02:42:21.154Z,0.00
2023-01-20T02:43:21.113Z,0.00
2023-01-20T02:44:21.086Z,0.00
2023-01-20T02:45:21.108Z,0.00
2023-01-20T02:46:20.994Z,0.00
2023-01-20T02:47:20.962Z,0.00
2023-01-20T02:48:20.926Z,0.00
2023-01-20T02:49:20.887Z,0.00
2023-01-20T02:50:20.847Z,0.00
2023-01-20T02:51:20.871Z,0.00
2023-01-20T02:52:20.772Z,0.00
2023-01-20T02:53:20.733Z,0.00
2023-01-20T02:54:20.696Z,0.00
2023-01-20T02:55:20.691Z,0.00
2023-01-20T02:56:20.671Z,0.00
2023-01-20T02:57:20.668Z,0.00
2023-01-20T02:58:20.557Z,0.00
2023-01-20T02:59:20.548Z,0.00
2023-01-20T03:00:20.475Z,0.00
2023-01-20T03:01:20.550Z,0.00
2023-01-20T03:02:20.457Z,0.00
2023-01-20T03:03:20.374Z,0.00
2023-01-20T03:04:20.324Z,0.00
2023-01-20T03:05:20.376Z,0.00
2023-01-20T03:06:20.254Z,0.00
2023-01-20T03:07:20.218Z,0.00
2023-01-20T03:08:20.175Z,0.00
2023-01-20T03:09:20.141Z,0.00
2023-01-20T03:10:20.162Z,0.00
2023-01-20T03:11:20.061Z,0.00
2023-01-20T03:12:20.024Z,0.00
2023-01-20T03:13:19.982Z,0.00
2023-01-20T03:14:19.958Z,0.00
2023-01-20T03:15:19.956Z,0.00
2023-01-20T03:16:19.920Z,0.00
2023-01-20T03:17:19.842Z,0.00
2023-01-20T03:18:19.791Z,0.00
2023-01-20T03:19:20.645Z,0.00
2023-01-20T03:20:19.726Z,0.00
2023-01-20T03:21:19.748Z,0.00
2023-01-20T03:22:19.649Z,0.00
2023-01-20T03:23:19.620Z,0.00
2023-01-20T03:24:19.563Z,0.00
2023-01-20T03:25:19.553Z,0.00
2023-01-20T03:26:19.499Z,0.00
2023-01-20T03:27:19.518Z,0.00
2023-01-20T03:28:19.417Z,0.00
2023-01-20T03:29:19.380Z,0.00
2023-01-20T03:30:19.341Z,0.00
2023-01-20T03:31:19.497Z,0.00
2023-01-20T03:32:19.276Z,0.00
2023-01-20T03:33:19.231Z,0.00
2023-01-20T03:34:19.207Z,0.00
2023-01-20T03:35:19.150Z,0.00
2023-01-20T03:36:19.127Z,0.00
2023-01-20T03:37:19.134Z,0.00
2023-01-20T03:38:19.044Z,0.00
2023-01-20T03:39:19.001Z,0.00
2023-01-20T03:40:18.974Z,0.00
2023-01-20T03:41:18.938Z,0.00
2023-01-20T03:42:18.949Z,0.00
2023-01-20T03:43:18.849Z,0.00
2023-01-20T03:44:18.806Z,0.00
2023-01-20T03:45:18.781Z,0.00
2023-01-20T03:46:18.740Z,0.00
2023-01-20T03:47:18.702Z,0.00
2023-01-20T03:48:18.731Z,0.00
2023-01-20T03:49:18.623Z,0.00
2023-01-20T03:50:18.584Z,0.00
2023-01-20T03:51:18.550Z,0.00
2023-01-20T03:52:18.528Z,0.00
2023-01-20T03:53:18.488Z,0.00
2023-01-20T03:54:18.498Z,0.00
2023-01-20T03:55:18.397Z,0.00
2023-01-20T03:56:18.363Z,0.00
2023-01-20T03:57:18.346Z,0.00
2023-01-20T03:58:18.324Z,0.00
2023-01-20T03:59:18.302Z,0.00
2023-01-20T04:00:18.211Z,0.00
2023-01-20T04:01:19.195Z,0.00
2023-01-20T04:02:18.328Z,0.00
2023-01-20T04:03:18.124Z,0.00
2023-01-20T04:04:18.080Z,0.00
2023-01-20T04:05:18.075Z,0.00
2023-01-20T04:06:17.990Z,0.00
2023-01-20T04:07:17.944Z,0.00
2023-01-20T04:08:17.979Z,0.00
2023-01-20T04:09:17.867Z,0.00
2023-01-20T04:10:17.840Z,0.00
2023-01-20T04:11:17.792Z,0.00
2023-01-20T04:12:17.754Z,0.00
2023-01-20T04:13:17.780Z,0.00
2023-01-20T04:14:17.689Z,0.00
2023-01-20T04:15:18.045Z,0.00
2023-01-20T04:16:17.604Z,0.00
2023-01-20T04:17:17.568Z,0.00
2023-01-20T04:18:17.520Z,0.00
2023-01-20T04:19:17.560Z,0.00
2023-01-20T04:20:17.450Z,0.00
2023-01-20T04:21:17.418Z,0.00
2023-01-20T04:22:17.379Z,0.00
2023-01-20T04:23:17.334Z,0.00
2023-01-20T04:24:17.299Z,0.00
2023-01-20T04:25:17.329Z,0.00
2023-01-20T04:26:17.230Z,0.00
2023-01-20T04:27:17.192Z,0.00
2023-01-20T04:28:17.151Z,0.00
2023-01-20T04:29:17.112Z,0.00
2023-01-20T04:30:17.071Z,0.00
2023-01-20T04:31:29.739Z,0.00
2023-01-20T04:32:16.999Z,0.00
2023-01-20T04:33:16.965Z,0.00
2023-01-20T04:34:16.922Z,0.00
2023-01-20T04:35:17.206Z,0.00
2023-01-20T04:36:16.900Z,0.00
2023-01-20T04:37:16.817Z,0.00
2023-01-20T04:38:16.771Z,0.00
2023-01-20T04:39:16.735Z,0.00
2023-01-20T04:40:16.693Z,0.00
2023-01-20T04:41:16.655Z,0.00
2023-01-20T04:42:16.690Z,0.00
2023-01-20T04:43:16.576Z,0.00
2023-01-20T04:44:16.548Z,0.00
2023-01-20T04:45:16.876Z,0.00
2023-01-20T04:46:16.510Z,0.00
2023-01-20T04:47:16.427Z,0.00
2023-01-20T04:48:16.445Z,0.00
2023-01-20T04:49:16.355Z,0.00
2023-01-20T04:50:16.324Z,0.00
2023-01-20T04:51:16.275Z,0.00
2023-01-20T04:52:16.240Z,0.00
2023-01-20T04:53:16.205Z,0.00
2023-01-20T04:54:16.221Z,0.00
2023-01-20T04:55:16.454Z,0.00
2023-01-20T04:56:16.081Z,0.00
2023-01-20T04:57:16.056Z,0.00
2023-01-20T04:58:16.076Z,0.00
2023-01-20T04:59:16.009Z,0.00
2023-01-20T05:00:15.940Z,0.00
2023-01-20T05:01:16.002Z,0.00
2023-01-20T05:02:15.918Z,0.00
2023-01-20T05:03:15.815Z,0.00
2023-01-20T05:04:15.840Z,0.00
2023-01-20T05:05:16.111Z,0.00
2023-01-20T05:06:15.705Z,0.00
2023-01-20T05:07:15.673Z,0.00
2023-01-20T05:08:15.642Z,0.00
2023-01-20T05:09:15.610Z,0.00
2023-01-20T05:10:15.611Z,0.00
2023-01-20T05:11:15.511Z,0.00
2023-01-20T05:12:15.478Z,0.00
2023-01-20T05:13:15.442Z,0.00
2023-01-20T05:14:15.402Z,0.00
2023-01-20T05:15:15.702Z,0.00
2023-01-20T05:16:15.426Z,0.00
2023-01-20T05:17:16.026Z,0.00
2023-01-20T05:18:15.262Z,0.00
2023-01-20T05:19:15.213Z,0.00
2023-01-20T05:20:15.173Z,0.00
2023-01-20T05:21:15.184Z,0.00
2023-01-20T05:22:15.094Z,0.00
2023-01-20T05:23:15.069Z,0.00
2023-01-20T05:24:15.047Z,0.00
2023-01-20T05:25:15.330Z,0.00
2023-01-20T05:26:14.988Z,0.00
2023-01-20T05:27:14.915Z,0.00
2023-01-20T05:28:14.877Z,0.00
2023-01-20T05:29:14.833Z,0.00
2023-01-20T05:30:14.797Z,0.00
2023-01-20T05:31:14.910Z,0.00
2023-01-20T05:32:14.780Z,0.00
2023-01-20T05:33:14.697Z,0.00
2023-01-20T05:34:14.639Z,0.00
2023-01-20T05:35:14.808Z,0.00
2023-01-20T05:36:14.647Z,0.00
2023-01-20T05:37:14.531Z,0.00
2023-01-20T05:38:14.488Z,0.00
2023-01-20T05:39:14.554Z,0.00
2023-01-20T05:40:14.416Z,0.00
2023-01-20T05:41:14.379Z,0.00
2023-01-20T05:42:14.405Z,0.00
2023-01-20T05:43:14.301Z,0.00
2023-01-20T05:44:14.254Z,0.00
2023-01-20T05:45:14.547Z,0.00
2023-01-20T05:46:14.232Z,0.00
2023-01-20T05:47:14.204Z,0.00
2023-01-20T05:48:14.114Z,0.00
2023-01-20T05:49:14.074Z,0.00
2023-01-20T05:50:15.040Z,0.00
2023-01-20T05:51:13.997Z,0.00
2023-01-20T05:52:13.963Z,0.00
2023-01-20T05:53:13.968Z,0.00
2023-01-20T05:54:13.878Z,0.00
2023-01-20T05:55:14.084Z,0.00
2023-01-20T05:56:13.816Z,0.00
2023-01-20T05:57:13.767Z,0.00
2023-01-20T05:58:13.739Z,0.00
2023-01-20T05:59:13.758Z,0.00
2023-01-20T06:00:13.659Z,0.00
2023-01-20T06:01:13.661Z,0.00
2023-01-20T06:02:13.592Z,0.00
2023-01-20T06:03:13.544Z,0.00
2023-01-20T06:04:13.500Z,0.00
2023-01-20T06:05:13.784Z,0.00
2023-01-20T06:06:13.457Z,0.00
2023-01-20T06:07:13.387Z,0.00
2023-01-20T06:08:13.356Z,0.00
2023-01-20T06:09:13.313Z,0.00
2023-01-20T06:10:13.333Z,0.00
2023-01-20T06:11:13.237Z,0.00
2023-01-20T06:12:13.202Z,0.00
2023-01-20T06:13:13.163Z,0.00
2023-01-20T06:14:13.123Z,0.00
2023-01-20T06:15:13.515Z,0.00
2023-01-20T06:16:13.360Z,0.00
2023-01-20T06:17:13.015Z,0.00
2023-01-20T06:18:12.983Z,0.00
2023-01-20T06:19:13.013Z,0.00
2023-01-20T06:20:12.906Z,0.00
2023-01-20T06:21:12.867Z,0.00
2023-01-20T06:22:12.876Z,0.00
2023-01-20T06:23:12.784Z,0.00
2023-01-20T06:24:12.747Z,0.00
2023-01-20T06:25:13.078Z,0.00
2023-01-20T06:26:12.671Z,0.00
2023-01-20T06:27:13.736Z,0.00
2023-01-20T06:28:12.656Z,0.00
2023-01-20T06:29:12.566Z,0.00
2023-01-20T06:30:12.523Z,0.00
2023-01-20T06:31:12.607Z,0.00
2023-01-20T06:32:12.453Z,0.00
2023-01-20T06:33:12.415Z,0.00
2023-01-20T06:34:12.416Z,0.00
2023-01-20T06:35:12.574Z,0.00
2023-01-20T06:36:12.319Z,0.00
2023-01-20T06:37:12.257Z,0.00
2023-01-20T06:38:12.231Z,0.00
2023-01-20T06:39:12.227Z,0.00
2023-01-20T06:40:12.137Z,0.00
2023-01-20T06:41:12.105Z,0.00
2023-01-20T06:42:12.064Z,0.00
2023-01-20T06:43:12.024Z,0.00
2023-01-20T06:44:11.986Z,0.00
2023-01-20T06:45:12.023Z,0.00
2023-01-20T06:46:11.987Z,0.00
2023-01-20T06:47:11.866Z,0.00
2023-01-20T06:48:11.835Z,0.00
2023-01-20T06:49:11.807Z,0.00
2023-01-20T06:50:11.818Z,0.00
2023-01-20T06:51:11.751Z,0.00
2023-01-20T06:52:11.686Z,0.00
2023-01-20T06:53:11.698Z,0.00
2023-01-20T06:54:11.604Z,0.00
2023-01-20T06:55:11.568Z,0.00
2023-01-20T06:56:11.585Z,0.00
2023-01-20T06:57:11.506Z,0.00
2023-01-20T06:58:11.449Z,0.00
2023-01-20T06:59:11.421Z,0.00
2023-01-20T07:00:11.383Z,0.00
2023-01-20T07:01:11.569Z,0.00
2023-01-20T07:02:11.393Z,0.00
2023-01-20T07:03:13.962Z,0.00
2023-01-20T07:04:11.225Z,0.00
2023-01-20T07:05:11.192Z,0.00
2023-01-20T07:06:11.206Z,5.63
2023-01-20T07:07:11.116Z,5.63
2023-01-20T07:08:11.075Z,5.63
2023-01-20T07:09:11.051Z,5.63
2023-01-20T07:10:11.008Z,5.63
2023-01-20T07:11:10.962Z,5.63
2023-01-20T07:12:10.994Z,5.63
2023-01-20T07:13:10.891Z,11.25
2023-01-20T07:14:10.859Z,11.25
2023-01-20T07:15:10.814Z,11.25
2023-01-20T07:16:13.052Z,11.25
2023-01-20T07:17:10.799Z,11.25
2023-01-20T07:18:10.694Z,11.25
2023-01-20T07:19:10.658Z,16.88
2023-01-20T07:20:10.633Z,16.88
2023-01-20T07:21:10.591Z,16.88
2023-01-20T07:22:10.547Z,16.88
2023-01-20T07:23:10.583Z,16.88
2023-01-20T07:24:10.474Z,22.50
2023-01-20T07:25:10.434Z,22.50
2023-01-20T07:26:10.393Z,22.50
2023-01-20T07:27:10.361Z,22.50
2023-01-20T07:28:10.327Z,28.13
2023-01-20T07:29:10.334Z,28.13
2023-01-20T07:30:10.247Z,28.13
2023-01-20T07:31:10.389Z,33.75
2023-01-20T07:32:10.179Z,33.75
2023-01-20T07:33:10.136Z,33.75
2023-01-20T07:34:10.094Z,33.75
2023-01-20T07:35:10.112Z,33.75
2023-01-20T07:36:10.020Z,33.75
2023-01-20T07:37:09.976Z,39.38
2023-01-20T07:38:09.945Z,39.38
2023-01-20T07:39:09.908Z,39.38
2023-01-20T07:40:09.862Z,39.38
2023-01-20T07:41:09.890Z,39.38
2023-01-20T07:42:09.811Z,39.38
2023-01-20T07:43:09.750Z,45.00
2023-01-20T07:44:09.724Z,45.00
2023-01-20T07:45:09.682Z,45.00
2023-01-20T07:46:09.702Z,50.63
2023-01-20T07:47:09.669Z,50.63
2023-01-20T07:48:09.581Z,56.25
2023-01-20T07:49:12.043Z,56.25
2023-01-20T07:50:09.504Z,61.88
2023-01-20T07:51:09.468Z,67.50
2023-01-20T07:52:09.465Z,67.50
2023-01-20T07:53:09.378Z,73.13
2023-01-20T07:54:09.338Z,73.13
2023-01-20T07:55:09.296Z,78.75
2023-01-20T07:56:09.260Z,78.75
2023-01-20T07:57:09.220Z,78.75
2023-01-20T07:58:09.234Z,78.75
2023-01-20T07:59:09.147Z,84.38
2023-01-20T08:00:09.148Z,84.38
2023-01-20T08:01:09.236Z,84.38
2023-01-20T08:02:09.035Z,84.38
2023-01-20T08:03:08.996Z,84.38
2023-01-20T08:04:09.025Z,84.38
2023-01-20T08:05:08.964Z,84.38
2023-01-20T08:06:08.943Z,84.38
2023-01-20T08:07:08.868Z,84.38
2023-01-20T08:08:08.812Z,84.38
2023-01-20T08:09:08.776Z,84.38
2023-01-20T08:10:08.769Z,84.38
2023-01-20T08:11:08.700Z,90.00
2023-01-20T08:12:08.649Z,95.63
2023-01-20T08:13:08.611Z,95.63
2023-01-20T08:14:08.579Z,95.63
2023-01-20T08:15:08.561Z,101.25
2023-01-20T08:16:08.554Z,101.25
2023-01-20T08:17:08.463Z,106.88
2023-01-20T08:18:08.422Z,112.50
2023-01-20T08:19:08.409Z,112.50
2023-01-20T08:20:08.357Z,112.50
2023-01-20T08:21:08.538Z,112.50
2023-01-20T08:22:08.339Z,118.13
2023-01-20T08:23:08.238Z,118.13
2023-01-20T08:24:08.208Z,112.50
2023-01-20T08:25:08.204Z,112.50
2023-01-20T08:26:08.141Z,118.13
2023-01-20T08:27:08.096Z,118.13
2023-01-20T08:28:08.277Z,123.75
2023-01-20T08:29:08.016Z,123.75
2023-01-20T08:30:07.996Z,123.75
2023-01-20T08:31:08.045Z,123.75
2023-01-20T08:32:07.903Z,129.38
2023-01-20T08:33:07.857Z,129.38
2023-01-20T08:34:07.878Z,129.38
2023-01-20T08:35:07.791Z,123.75
2023-01-20T08:36:07.753Z,123.75
2023-01-20T08:37:07.745Z,123.75
2023-01-20T08:38:07.684Z,129.38
2023-01-20T08:39:07.646Z,135.00
2023-01-20T08:40:07.681Z,135.00
2023-01-20T08:41:07.558Z,135.00
2023-01-20T08:42:07.521Z,129.38
2023-01-20T08:43:07.485Z,129.38
2023-01-20T08:44:07.457Z,129.38
2023-01-20T08:45:07.404Z,123.75
2023-01-20T08:46:07.575Z,123.75
2023-01-20T08:47:07.357Z,129.38
2023-01-20T08:48:07.285Z,129.38
2023-01-20T08:49:07.318Z,129.38
2023-01-20T08:50:07.206Z,135.00
2023-01-20T08:51:07.203Z,135.00
2023-01-20T08:52:07.174Z,135.00
2023-01-20T08:53:07.107Z,140.63
2023-01-20T08:54:07.068Z,140.63
2023-01-20T08:55:07.114Z,146.25
2023-01-20T08:56:06.990Z,151.88
2023-01-20T08:57:06.939Z,151.88
2023-01-20T08:58:06.917Z,157.50
2023-01-20T08:59:06.875Z,157.50
2023-01-20T09:00:06.831Z,157.50
2023-01-20T09:01:06.885Z,163.13
2023-01-20T09:02:07.059Z,163.13
2023-01-20T09:03:06.725Z,163.13
2023-01-20T09:04:07.423Z,163.13
2023-01-20T09:05:06.702Z,163.13
2023-01-20T09:06:06.597Z,174.38
2023-01-20T09:07:06.559Z,174.38
2023-01-20T09:08:06.528Z,180.00
2023-01-20T09:09:06.498Z,185.63
2023-01-20T09:10:06.479Z,196.88
2023-01-20T09:11:06.497Z,196.88
2023-01-20T09:12:06.382Z,196.88
2023-01-20T09:13:06.333Z,202.50
2023-01-20T09:14:06.304Z,196.88
2023-01-20T09:15:06.282Z,196.88
2023-01-20T09:16:06.300Z,191.25
2023-01-20T09:17:06.234Z,191.25
2023-01-20T09:18:06.153Z,196.88
2023-01-20T09:19:06.106Z,202.50
2023-01-20T09:20:06.073Z,202.50
2023-01-20T09:21:06.031Z,202.50
2023-01-20T09:22:06.061Z,202.50
2023-01-20T09:23:05.954Z,196.88
2023-01-20T09:24:05.921Z,196.88
2023-01-20T09:25:05.885Z,196.88
2023-01-20T09:26:05.849Z,196.88
2023-01-20T09:27:05.822Z,202.50
2023-01-20T09:28:06.719Z,202.50
2023-01-20T09:29:05.727Z,202.50
2023-01-20T09:30:05.697Z,208.13
2023-01-20T09:31:05.755Z,208.13
2023-01-20T09:32:05.661Z,213.75
2023-01-20T09:33:05.575Z,213.75
2023-01-20T09:34:05.624Z,213.75
2023-01-20T09:35:05.503Z,213.75
2023-01-20T09:36:05.464Z,208.13
2023-01-20T09:37:05.430Z,202.50
2023-01-20T09:38:05.403Z,208.13
2023-01-20T09:39:05.363Z,202.50
2023-01-20T09:40:05.365Z,196.88
2023-01-20T09:41:05.292Z,196.88
2023-01-20T09:42:05.260Z,191.25
2023-01-20T09:43:05.211Z,191.25
2023-01-20T09:44:05.170Z,191.25
2023-01-20T09:45:05.144Z,191.25
2023-01-20T09:46:05.173Z,191.25
2023-01-20T09:47:05.048Z,191.25
2023-01-20T09:48:05.011Z,196.88
2023-01-20T09:49:04.981Z,202.50
2023-01-20T09:50:04.942Z,208.13
2023-01-20T09:51:04.907Z,202.50
2023-01-20T09:52:04.923Z,196.88
2023-01-20T09:53:04.824Z,191.25
2023-01-20T09:54:04.831Z,185.63
2023-01-20T09:55:04.762Z,185.63
2023-01-20T09:56:05.961Z,185.63
2023-01-20T09:57:04.727Z,185.63
2023-01-20T09:58:04.709Z,185.63
2023-01-20T09:59:04.616Z,185.63
2023-01-20T10:00:04.578Z,191.25
2023-01-20T10:01:04.542Z,191.25
2023-01-20T10:02:04.503Z,196.88
2023-01-20T10:03:04.455Z,202.50
2023-01-20T10:04:05.033Z,202.50
2023-01-20T10:05:04.417Z,196.88
2023-01-20T10:06:04.349Z,196.88
2023-01-20T10:07:04.309Z,191.25
2023-01-20T10:08:04.274Z,191.25
2023-01-20T10:09:06.280Z,191.25
2023-01-20T10:10:04.301Z,191.25
2023-01-20T10:11:04.160Z,196.88
2023-01-20T10:12:04.124Z,202.50
2023-01-20T10:13:04.086Z,208.13
2023-01-20T10:14:04.041Z,213.75
2023-01-20T10:15:04.023Z,213.75
2023-01-20T10:16:04.145Z,202.50
2023-01-20T10:17:03.929Z,191.25
2023-01-20T10:18:03.914Z,185.63
2023-01-20T10:19:03.863Z,191.25
2023-01-20T10:20:03.824Z,196.88
2023-01-20T10:21:03.781Z,202.50
2023-01-20T10:22:03.805Z,202.50
2023-01-20T10:23:03.721Z,196.88
2023-01-20T10:24:03.677Z,191.25
2023-01-20T10:25:03.641Z,196.88
2023-01-20T10:26:03.604Z,208.13
2023-01-20T10:27:03.594Z,219.38
2023-01-20T10:28:03.570Z,241.88
2023-01-20T10:29:03.493Z,253.13
2023-01-20T10:30:03.452Z,258.75
2023-01-20T10:31:03.530Z,258.75
2023-01-20T10:32:03.379Z,270.00
2023-01-20T10:33:03.348Z,275.63
2023-01-20T10:34:03.343Z,281.25
2023-01-20T10:35:03.266Z,281.25
2023-01-20T10:36:03.233Z,292.50
2023-01-20T10:37:03.184Z,315.00
2023-01-20T10:38:03.161Z,326.25
2023-01-20T10:39:03.164Z,326.25
2023-01-20T10:40:03.076Z,331.88
2023-01-20T10:41:03.040Z,331.88
2023-01-20T10:42:03.011Z,337.50
2023-01-20T10:43:02.972Z,331.88
2023-01-20T10:44:02.934Z,298.13
2023-01-20T10:45:03.017Z,281.25
2023-01-20T10:46:02.870Z,275.63
2023-01-20T10:47:02.822Z,270.00
2023-01-20T10:48:02.787Z,264.38
2023-01-20T10:49:02.769Z,253.13
2023-01-20T10:50:02.722Z,258.75
2023-01-20T10:51:02.732Z,270.00
2023-01-20T10:52:02.679Z,270.00
2023-01-20T10:53:02.617Z,270.00
2023-01-20T10:54:02.575Z,264.38
2023-01-20T10:55:02.534Z,264.38
2023-01-20T10:56:02.500Z,258.75
2023-01-20T10:57:02.505Z,258.75
2023-01-20T10:58:02.431Z,264.38
2023-01-20T10:59:02.381Z,258.75
2023-01-20T11:00:02.369Z,247.50
2023-01-20T11:01:02.317Z,236.25
2023-01-20T11:02:11.387Z,230.63
2023-01-20T11:03:02.371Z,230.63
2023-01-20T11:04:02.199Z,230.63
2023-01-20T11:05:02.167Z,225.00
2023-01-20T11:06:02.144Z,225.00
2023-01-20T11:07:02.097Z,225.00
2023-01-20T11:08:02.148Z,230.63
2023-01-20T11:09:02.028Z,230.63
2023-01-20T11:10:01.987Z,230.63
2023-01-20T11:11:01.960Z,230.63
2023-01-20T11:12:01.957Z,225.00
2023-01-20T11:13:01.940Z,213.75
2023-01-20T11:14:01.856Z,208.13
2023-01-20T11:15:01.812Z,196.88
2023-01-20T11:16:01.807Z,191.25
2023-01-20T11:17:01.739Z,191.25
2023-01-20T11:18:01.765Z,191.25
2023-01-20T11:19:01.660Z,208.13
2023-01-20T11:20:01.632Z,219.38
2023-01-20T11:21:01.590Z,225.00
2023-01-20T11:22:01.551Z,225.00
2023-01-20T11:23:01.652Z,225.00
2023-01-20T11:24:01.488Z,230.63
2023-01-20T11:25:01.449Z,241.88
2023-01-20T11:26:01.399Z,258.75
2023-01-20T11:27:01.373Z,270.00
2023-01-20T11:28:01.390Z,275.63
2023-01-20T11:29:01.302Z,281.25
2023-01-20T11:30:01.255Z,281.25
2023-01-20T11:31:01.311Z,281.25
2023-01-20T11:32:01.205Z,281.25
2023-01-20T11:33:01.246Z,298.13
2023-01-20T11:34:01.116Z,315.00
2023-01-20T11:35:01.079Z,315.00
2023-01-20T11:36:01.056Z,303.75
2023-01-20T11:37:01.006Z,298.13
2023-01-20T11:38:01.052Z,303.75
2023-01-20T11:39:00.944Z,309.38
2023-01-20T11:40:00.906Z,309.38
2023-01-20T11:41:00.863Z,309.38
2023-01-20T11:42:00.826Z,303.75
2023-01-20T11:43:00.797Z,303.75
2023-01-20T11:44:00.857Z,298.13
2023-01-20T11:45:19.786Z,275.63
2023-01-20T11:46:00.695Z,264.38
2023-01-20T11:47:00.652Z,253.13
2023-01-20T11:48:00.629Z,241.88
2023-01-20T11:49:00.580Z,241.88
2023-01-20T11:50:00.609Z,241.88
2023-01-20T11:51:00.506Z,241.88
2023-01-20T11:52:00.506Z,247.50
2023-01-20T11:53:00.443Z,247.50
2023-01-20T11:54:00.403Z,247.50
2023-01-20T11:55:00.388Z,247.50
2023-01-20T11:56:00.387Z,247.50
2023-01-20T11:57:00.296Z,247.50
2023-01-20T11:58:00.331Z,247.50
2023-01-20T11:59:00.235Z,225.00
2023-01-20T12:00:00.250Z,219.38
2023-01-20T12:01:00.160Z,219.38
2023-01-20T12:02:00.304Z,219.38
2023-01-20T12:03:00.111Z,219.38
2023-01-20T12:04:00.065Z,202.50
2023-01-20T12:05:00.054Z,180.00
2023-01-20T12:05:59.967Z,168.75
2023-01-20T12:06:59.927Z,163.13
2023-01-20T12:07:59.910Z,163.13
2023-01-20T12:08:59.872Z,168.75
2023-01-20T12:09:59.819Z,180.00
2023-01-20T12:10:59.865Z,174.38
2023-01-20T12:11:59.763Z,168.75
2023-01-20T12:12:59.730Z,168.75
2023-01-20T12:13:59.678Z,174.38
2023-01-20T12:14:59.653Z,174.38
2023-01-20T12:15:59.664Z,174.38
2023-01-20T12:16:59.630Z,174.38
2023-01-20T12:17:59.566Z,180.00
2023-01-20T12:19:02.235Z,185.63
2023-01-20T12:19:59.472Z,191.25
2023-01-20T12:20:59.429Z,191.25
2023-01-20T12:21:59.386Z,196.88
2023-01-20T12:22:59.831Z,208.13
2023-01-20T12:24:00.539Z,208.13
2023-01-20T12:24:59.289Z,213.75
2023-01-20T12:25:59.264Z,213.75
2023-01-20T12:26:59.205Z,213.75
2023-01-20T12:27:59.193Z,213.75
2023-01-20T12:28:59.185Z,208.13
2023-01-20T12:29:59.105Z,208.13
2023-01-20T12:30:59.122Z,202.50
2023-01-20T12:31:59.053Z,208.13
2023-01-20T12:32:59.012Z,208.13
2023-01-20T12:33:58.946Z,202.50
2023-01-20T12:34:58.974Z,208.13
2023-01-20T12:35:59.016Z,213.75
2023-01-20T12:36:58.859Z,213.75
2023-01-20T12:37:58.807Z,219.38
2023-01-20T12:38:58.780Z,230.63
2023-01-20T12:39:58.743Z,230.63
2023-01-20T12:40:58.778Z,236.25
2023-01-20T12:41:58.693Z,236.25
2023-01-20T12:42:58.620Z,241.88
2023-01-20T12:43:58.591Z,247.50
2023-01-20T12:44:58.573Z,253.13
2023-01-20T12:45:58.557Z,253.13
2023-01-20T12:46:58.555Z,253.13
2023-01-20T12:47:58.451Z,253.13
2023-01-20T12:48:58.410Z,253.13
2023-01-20T12:49:58.408Z,253.13
2023-01-20T12:50:58.354Z,253.13
2023-01-20T12:51:58.301Z,247.50
2023-01-20T12:52:58.327Z,236.25
2023-01-20T12:53:58.237Z,230.63
2023-01-20T12:54:58.210Z,225.00
2023-01-20T12:55:58.150Z,225.00
2023-01-20T12:56:58.128Z,225.00